sensor_id;sensor_type;location;lat;lon;timestamp;P1;durP1;ratioP1;P2;durP2;ratioP2
60426;SDS011;46274;47.168;27.604;2023-11-21T00:03:43;49.17;;;22.87;;
60426;SDS011;46274;47.168;27.604;2023-11-21T00:09:45;53.77;;;24.83;;
60426;SDS011;46274;47.168;27.604;2023-11-21T00:15:48;56.93;;;25.07;;
60426;SDS011;46274;47.168;27.604;2023-11-21T00:21:52;55.00;;;26.73;;
60426;SDS011;46274;47.168;27.604;2023-11-21T00:27:55;82.27;;;32.37;;
60426;SDS011;46274;47.168;27.604;2023-11-21T00:33:57;57.80;;;25.63;;
60426;SDS011;46274;47.168;27.604;2023-11-21T00:40:00;52.10;;;24.47;;
60426;SDS011;46274;47.168;27.604;2023-11-21T00:46:06;58.73;;;26.27;;
60426;SDS011;46274;47.168;27.604;2023-11-21T00:52:09;61.33;;;28.73;;
60426;SDS011;46274;47.168;27.604;2023-11-21T00:58:11;55.10;;;24.90;;
60426;SDS011;46274;47.168;27.604;2023-11-21T01:04:14;58.33;;;27.07;;
60426;SDS011;46274;47.168;27.604;2023-11-21T01:10:17;51.70;;;25.63;;
60426;SDS011;46274;47.168;27.604;2023-11-21T01:16:20;50.67;;;23.83;;
60426;SDS011;46274;47.168;27.604;2023-11-21T01:22:22;56.73;;;22.80;;
60426;SDS011;46274;47.168;27.604;2023-11-21T01:28:27;55.97;;;25.37;;
60426;SDS011;46274;47.168;27.604;2023-11-21T01:34:30;53.43;;;25.33;;
60426;SDS011;46274;47.168;27.604;2023-11-21T01:40:33;52.53;;;25.33;;
60426;SDS011;46274;47.168;27.604;2023-11-21T01:46:35;51.30;;;23.57;;
60426;SDS011;46274;47.168;27.604;2023-11-21T01:52:39;47.80;;;23.27;;
60426;SDS011;46274;47.168;27.604;2023-11-21T01:58:43;47.53;;;22.53;;
60426;SDS011;46274;47.168;27.604;2023-11-21T02:04:48;56.83;;;24.97;;
60426;SDS011;46274;47.168;27.604;2023-11-21T02:10:51;46.43;;;21.83;;
60426;SDS011;46274;47.168;27.604;2023-11-21T02:16:55;50.37;;;23.63;;
60426;SDS011;46274;47.168;27.604;2023-11-21T02:22:59;46.90;;;22.87;;
60426;SDS011;46274;47.168;27.604;2023-11-21T02:29:02;53.07;;;25.77;;
60426;SDS011;46274;47.168;27.604;2023-11-21T02:35:06;44.80;;;20.90;;
60426;SDS011;46274;47.168;27.604;2023-11-21T02:41:10;47.33;;;23.43;;
60426;SDS011;46274;47.168;27.604;2023-11-21T02:47:13;52.13;;;24.37;;
60426;SDS011;46274;47.168;27.604;2023-11-21T02:53:15;57.40;;;24.03;;
60426;SDS011;46274;47.168;27.604;2023-11-21T02:59:18;50.33;;;23.63;;
60426;SDS011;46274;47.168;27.604;2023-11-21T03:05:21;56.17;;;25.93;;
60426;SDS011;46274;47.168;27.604;2023-11-21T03:11:23;46.43;;;22.40;;
60426;SDS011;46274;47.168;27.604;2023-11-21T03:17:26;52.63;;;23.97;;
60426;SDS011;46274;47.168;27.604;2023-11-21T03:23:28;73.67;;;29.97;;
60426;SDS011;46274;47.168;27.604;2023-11-21T03:29:31;53.67;;;26.03;;
60426;SDS011;46274;47.168;27.604;2023-11-21T03:35:33;60.67;;;26.90;;
60426;SDS011;46274;47.168;27.604;2023-11-21T03:41:34;80.17;;;33.43;;
60426;SDS011;46274;47.168;27.604;2023-11-21T03:47:36;78.53;;;33.17;;
60426;SDS011;46274;47.168;27.604;2023-11-21T03:53:38;76.73;;;32.70;;
60426;SDS011;46274;47.168;27.604;2023-11-21T03:59:40;70.83;;;31.97;;
60426;SDS011;46274;47.168;27.604;2023-11-21T04:05:43;57.83;;;25.10;;
60426;SDS011;46274;47.168;27.604;2023-11-21T04:11:45;60.97;;;27.73;;
60426;SDS011;46274;47.168;27.604;2023-11-21T04:17:48;50.23;;;24.20;;
60426;SDS011;46274;47.168;27.604;2023-11-21T04:23:50;60.97;;;26.00;;
60426;SDS011;46274;47.168;27.604;2023-11-21T04:29:52;79.87;;;34.23;;
60426;SDS011;46274;47.168;27.604;2023-11-21T04:35:55;63.50;;;27.70;;
60426;SDS011;46274;47.168;27.604;2023-11-21T04:41:57;63.70;;;28.97;;
60426;SDS011;46274;47.168;27.604;2023-11-21T04:48:00;61.07;;;26.57;;
60426;SDS011;46274;47.168;27.604;2023-11-21T04:54:03;46.67;;;23.27;;
60426;SDS011;46274;47.168;27.604;2023-11-21T05:00:05;53.90;;;26.43;;
60426;SDS011;46274;47.168;27.604;2023-11-21T05:06:11;50.00;;;25.30;;
60426;SDS011;46274;47.168;27.604;2023-11-21T05:12:13;53.37;;;25.13;;
60426;SDS011;46274;47.168;27.604;2023-11-21T05:18:16;50.53;;;24.07;;
60426;SDS011;46274;47.168;27.604;2023-11-21T05:24:18;81.47;;;36.40;;
60426;SDS011;46274;47.168;27.604;2023-11-21T05:30:21;62.67;;;29.40;;
60426;SDS011;46274;47.168;27.604;2023-11-21T05:36:23;55.13;;;25.10;;
60426;SDS011;46274;47.168;27.604;2023-11-21T05:42:26;65.30;;;29.70;;
60426;SDS011;46274;47.168;27.604;2023-11-21T05:48:28;88.40;;;37.23;;
60426;SDS011;46274;47.168;27.604;2023-11-21T05:54:30;66.47;;;30.90;;
60426;SDS011;46274;47.168;27.604;2023-11-21T06:00:32;55.43;;;27.23;;
60426;SDS011;46274;47.168;27.604;2023-11-21T06:06:35;52.97;;;25.03;;
60426;SDS011;46274;47.168;27.604;2023-11-21T06:12:37;50.50;;;24.87;;
60426;SDS011;46274;47.168;27.604;2023-11-21T06:18:42;48.33;;;23.53;;
60426;SDS011;46274;47.168;27.604;2023-11-21T06:24:45;54.27;;;26.43;;
60426;SDS011;46274;47.168;27.604;2023-11-21T06:30:48;51.20;;;25.90;;
60426;SDS011;46274;47.168;27.604;2023-11-21T06:36:51;58.17;;;26.27;;
60426;SDS011;46274;47.168;27.604;2023-11-21T06:42:54;65.70;;;29.00;;
60426;SDS011;46274;47.168;27.604;2023-11-21T06:48:56;64.50;;;30.37;;
60426;SDS011;46274;47.168;27.604;2023-11-21T06:54:59;54.23;;;25.00;;
60426;SDS011;46274;47.168;27.604;2023-11-21T07:01:01;51.57;;;24.50;;
60426;SDS011;46274;47.168;27.604;2023-11-21T07:07:04;51.80;;;26.37;;
60426;SDS011;46274;47.168;27.604;2023-11-21T07:13:07;45.37;;;20.97;;
60426;SDS011;46274;47.168;27.604;2023-11-21T07:19:12;57.17;;;25.70;;
60426;SDS011;46274;47.168;27.604;2023-11-21T07:25:15;62.17;;;26.97;;
60426;SDS011;46274;47.168;27.604;2023-11-21T07:31:17;55.83;;;26.43;;
60426;SDS011;46274;47.168;27.604;2023-11-21T07:37:24;54.87;;;26.40;;
60426;SDS011;46274;47.168;27.604;2023-11-21T07:43:26;54.43;;;26.23;;
60426;SDS011;46274;47.168;27.604;2023-11-21T07:49:29;70.93;;;31.20;;
60426;SDS011;46274;47.168;27.604;2023-11-21T07:55:32;71.17;;;30.00;;
60426;SDS011;46274;47.168;27.604;2023-11-21T08:01:35;63.10;;;29.47;;
60426;SDS011;46274;47.168;27.604;2023-11-21T08:07:37;59.10;;;28.17;;
60426;SDS011;46274;47.168;27.604;2023-11-21T08:13:41;71.57;;;34.17;;
60426;SDS011;46274;47.168;27.604;2023-11-21T08:19:44;60.73;;;28.83;;
60426;SDS011;46274;47.168;27.604;2023-11-21T08:25:51;49.67;;;23.37;;
60426;SDS011;46274;47.168;27.604;2023-11-21T08:31:54;53.10;;;25.67;;
60426;SDS011;46274;47.168;27.604;2023-11-21T08:37:57;50.57;;;23.70;;
60426;SDS011;46274;47.168;27.604;2023-11-21T08:43:59;60.27;;;29.87;;
60426;SDS011;46274;47.168;27.604;2023-11-21T08:50:02;62.97;;;28.93;;
60426;SDS011;46274;47.168;27.604;2023-11-21T08:56:05;58.80;;;26.47;;
60426;SDS011;46274;47.168;27.604;2023-11-21T09:02:08;48.73;;;25.47;;
60426;SDS011;46274;47.168;27.604;2023-11-21T09:08:11;60.63;;;28.37;;
60426;SDS011;46274;47.168;27.604;2023-11-21T09:14:13;60.90;;;26.03;;
60426;SDS011;46274;47.168;27.604;2023-11-21T09:20:18;42.53;;;22.00;;
60426;SDS011;46274;47.168;27.604;2023-11-21T09:26:27;49.40;;;24.93;;
60426;SDS011;46274;47.168;27.604;2023-11-21T09:32:29;52.77;;;24.87;;
60426;SDS011;46274;47.168;27.604;2023-11-21T09:38:31;49.07;;;23.73;;
60426;SDS011;46274;47.168;27.604;2023-11-21T09:51:23;43.70;;;22.03;;
60426;SDS011;46274;47.168;27.604;2023-11-21T09:57:32;40.70;;;20.07;;
60426;SDS011;46274;47.168;27.604;2023-11-21T10:03:38;45.30;;;22.50;;
60426;SDS011;46274;47.168;27.604;2023-11-21T10:09:41;67.80;;;27.07;;
60426;SDS011;46274;47.168;27.604;2023-11-21T10:15:47;43.00;;;21.03;;
60426;SDS011;46274;47.168;27.604;2023-11-21T10:21:52;45.97;;;22.73;;
60426;SDS011;46274;47.168;27.604;2023-11-21T10:28:04;52.40;;;24.17;;
60426;SDS011;46274;47.168;27.604;2023-11-21T10:40:14;39.90;;;20.73;;
60426;SDS011;46274;47.168;27.604;2023-11-21T10:46:17;41.13;;;20.70;;
60426;SDS011;46274;47.168;27.604;2023-11-21T10:52:28;35.13;;;16.80;;
60426;SDS011;46274;47.168;27.604;2023-11-21T10:58:31;36.40;;;15.63;;
60426;SDS011;46274;47.168;27.604;2023-11-21T11:04:39;28.33;;;13.93;;
60426;SDS011;46274;47.168;27.604;2023-11-21T11:11:00;21.80;;;12.43;;
60426;SDS011;46274;47.168;27.604;2023-11-21T11:17:09;33.90;;;15.13;;
60426;SDS011;46274;47.168;27.604;2023-11-21T11:42:38;24.27;;;14.17;;
60426;SDS011;46274;47.168;27.604;2023-11-21T11:48:42;20.97;;;10.87;;
60426;SDS011;46274;47.168;27.604;2023-11-21T11:54:52;20.33;;;11.57;;
60426;SDS011;46274;47.168;27.604;2023-11-21T12:01:06;25.23;;;11.53;;
60426;SDS011;46274;47.168;27.604;2023-11-21T12:07:18;20.03;;;10.13;;
60426;SDS011;46274;47.168;27.604;2023-11-21T12:13:27;16.77;;;9.57;;
60426;SDS011;46274;47.168;27.604;2023-11-21T12:19:30;27.23;;;12.53;;
60426;SDS011;46274;47.168;27.604;2023-11-21T12:25:44;19.53;;;10.13;;
60426;SDS011;46274;47.168;27.604;2023-11-21T12:31:55;18.17;;;9.83;;
60426;SDS011;46274;47.168;27.604;2023-11-21T12:37:59;20.67;;;11.67;;
60426;SDS011;46274;47.168;27.604;2023-11-21T12:52:12;30.03;;;13.70;;
60426;SDS011;46274;47.168;27.604;2023-11-21T13:12:01;26.03;;;13.47;;
60426;SDS011;46274;47.168;27.604;2023-11-21T13:18:30;20.47;;;11.50;;
60426;SDS011;46274;47.168;27.604;2023-11-21T13:32:27;60.33;;;21.90;;
60426;SDS011;46274;47.168;27.604;2023-11-21T13:45:04;50.73;;;18.20;;
60426;SDS011;46274;47.168;27.604;2023-11-21T13:51:15;36.57;;;16.30;;
60426;SDS011;46274;47.168;27.604;2023-11-21T13:57:44;29.73;;;13.20;;
60426;SDS011;46274;47.168;27.604;2023-11-21T14:03:57;30.97;;;13.77;;
60426;SDS011;46274;47.168;27.604;2023-11-21T14:17:01;33.07;;;16.93;;
60426;SDS011;46274;47.168;27.604;2023-11-21T14:23:23;30.17;;;15.40;;
60426;SDS011;46274;47.168;27.604;2023-11-21T14:29:26;27.07;;;13.37;;
60426;SDS011;46274;47.168;27.604;2023-11-21T14:35:29;29.50;;;14.10;;
60426;SDS011;46274;47.168;27.604;2023-11-21T14:41:41;29.97;;;15.43;;
60426;SDS011;46274;47.168;27.604;2023-11-21T14:47:52;28.17;;;14.57;;
60426;SDS011;46274;47.168;27.604;2023-11-21T14:54:09;46.23;;;21.73;;
60426;SDS011;46274;47.168;27.604;2023-11-21T15:00:13;48.00;;;23.83;;
60426;SDS011;46274;47.168;27.604;2023-11-21T15:06:38;37.50;;;18.33;;
60426;SDS011;46274;47.168;27.604;2023-11-21T15:12:44;31.43;;;14.23;;
60426;SDS011;46274;47.168;27.604;2023-11-21T15:25:30;36.87;;;15.37;;
60426;SDS011;46274;47.168;27.604;2023-11-21T15:31:33;26.50;;;13.70;;
60426;SDS011;46274;47.168;27.604;2023-11-21T15:37:46;35.20;;;17.07;;
60426;SDS011;46274;47.168;27.604;2023-11-21T15:43:59;28.60;;;14.83;;
60426;SDS011;46274;47.168;27.604;2023-11-21T15:50:09;27.93;;;13.90;;
60426;SDS011;46274;47.168;27.604;2023-11-21T15:56:19;46.13;;;15.80;;
60426;SDS011;46274;47.168;27.604;2023-11-21T16:02:22;31.93;;;16.13;;
60426;SDS011;46274;47.168;27.604;2023-11-21T16:08:39;38.30;;;16.60;;
60426;SDS011;46274;47.168;27.604;2023-11-21T16:14:41;34.40;;;16.00;;
60426;SDS011;46274;47.168;27.604;2023-11-21T16:20:51;30.87;;;15.53;;
60426;SDS011;46274;47.168;27.604;2023-11-21T16:27:14;33.83;;;16.37;;
60426;SDS011;46274;47.168;27.604;2023-11-21T16:33:21;43.77;;;21.77;;
60426;SDS011;46274;47.168;27.604;2023-11-21T16:39:38;63.37;;;29.10;;
60426;SDS011;46274;47.168;27.604;2023-11-21T16:45:46;56.43;;;27.57;;
60426;SDS011;46274;47.168;27.604;2023-11-21T16:52:01;50.70;;;22.37;;
60426;SDS011;46274;47.168;27.604;2023-11-21T16:58:24;47.60;;;21.47;;
60426;SDS011;46274;47.168;27.604;2023-11-21T17:04:27;50.53;;;23.93;;
60426;SDS011;46274;47.168;27.604;2023-11-21T17:10:50;44.97;;;21.50;;
60426;SDS011;46274;47.168;27.604;2023-11-21T17:17:06;38.70;;;18.93;;
60426;SDS011;46274;47.168;27.604;2023-11-21T17:23:17;50.00;;;22.07;;
60426;SDS011;46274;47.168;27.604;2023-11-21T17:29:21;42.00;;;19.93;;
60426;SDS011;46274;47.168;27.604;2023-11-21T17:35:23;58.10;;;23.13;;
60426;SDS011;46274;47.168;27.604;2023-11-21T17:41:25;52.00;;;22.77;;
60426;SDS011;46274;47.168;27.604;2023-11-21T17:47:35;41.70;;;19.93;;
60426;SDS011;46274;47.168;27.604;2023-11-21T17:53:40;41.47;;;19.77;;
60426;SDS011;46274;47.168;27.604;2023-11-21T17:59:44;39.57;;;19.17;;
60426;SDS011;46274;47.168;27.604;2023-11-21T18:06:04;44.57;;;19.77;;
60426;SDS011;46274;47.168;27.604;2023-11-21T18:19:10;48.13;;;20.97;;
60426;SDS011;46274;47.168;27.604;2023-11-21T18:25:13;144.20;;;56.07;;
60426;SDS011;46274;47.168;27.604;2023-11-21T18:31:32;94.03;;;40.13;;
60426;SDS011;46274;47.168;27.604;2023-11-21T18:37:48;76.90;;;32.87;;
60426;SDS011;46274;47.168;27.604;2023-11-21T18:43:53;76.00;;;33.00;;
60426;SDS011;46274;47.168;27.604;2023-11-21T18:50:04;76.17;;;32.87;;
60426;SDS011;46274;47.168;27.604;2023-11-21T18:56:26;68.50;;;32.00;;
60426;SDS011;46274;47.168;27.604;2023-11-21T19:02:41;52.47;;;24.40;;
60426;SDS011;46274;47.168;27.604;2023-11-21T19:08:44;50.57;;;22.93;;
60426;SDS011;46274;47.168;27.604;2023-11-21T19:14:47;81.63;;;34.67;;
60426;SDS011;46274;47.168;27.604;2023-11-21T19:20:57;78.43;;;34.33;;
60426;SDS011;46274;47.168;27.604;2023-11-21T19:27:00;65.43;;;29.20;;
60426;SDS011;46274;47.168;27.604;2023-11-21T19:33:12;104.43;;;43.60;;
60426;SDS011;46274;47.168;27.604;2023-11-21T19:39:30;62.03;;;26.53;;
60426;SDS011;46274;47.168;27.604;2023-11-21T19:45:33;53.90;;;27.47;;
60426;SDS011;46274;47.168;27.604;2023-11-21T19:51:42;85.50;;;37.03;;
60426;SDS011;46274;47.168;27.604;2023-11-21T19:57:46;60.50;;;28.53;;
60426;SDS011;46274;47.168;27.604;2023-11-21T20:03:51;73.47;;;35.10;;
60426;SDS011;46274;47.168;27.604;2023-11-21T20:09:54;80.10;;;34.57;;
60426;SDS011;46274;47.168;27.604;2023-11-21T20:16:06;60.57;;;28.53;;
60426;SDS011;46274;47.168;27.604;2023-11-21T20:22:12;50.17;;;23.27;;
60426;SDS011;46274;47.168;27.604;2023-11-21T20:28:20;52.27;;;25.17;;
60426;SDS011;46274;47.168;27.604;2023-11-21T20:34:25;50.37;;;24.40;;
60426;SDS011;46274;47.168;27.604;2023-11-21T20:40:41;43.17;;;21.43;;
60426;SDS011;46274;47.168;27.604;2023-11-21T20:46:45;47.23;;;22.73;;
60426;SDS011;46274;47.168;27.604;2023-11-21T20:53:07;65.37;;;30.30;;
60426;SDS011;46274;47.168;27.604;2023-11-21T20:59:12;67.80;;;31.07;;
60426;SDS011;46274;47.168;27.604;2023-11-21T21:05:14;59.37;;;26.93;;
60426;SDS011;46274;47.168;27.604;2023-11-21T21:11:22;62.37;;;26.20;;
60426;SDS011;46274;47.168;27.604;2023-11-21T21:17:24;63.17;;;28.73;;
60426;SDS011;46274;47.168;27.604;2023-11-21T21:23:34;69.33;;;31.97;;
60426;SDS011;46274;47.168;27.604;2023-11-21T21:29:45;52.47;;;24.57;;
60426;SDS011;46274;47.168;27.604;2023-11-21T21:35:59;48.97;;;21.90;;
60426;SDS011;46274;47.168;27.604;2023-11-21T21:42:06;91.83;;;37.03;;
60426;SDS011;46274;47.168;27.604;2023-11-21T21:48:16;63.07;;;29.57;;
60426;SDS011;46274;47.168;27.604;2023-11-21T21:54:27;63.40;;;29.23;;
60426;SDS011;46274;47.168;27.604;2023-11-21T22:00:29;49.73;;;23.60;;
60426;SDS011;46274;47.168;27.604;2023-11-21T22:06:44;46.60;;;20.30;;
60426;SDS011;46274;47.168;27.604;2023-11-21T22:12:46;54.57;;;23.57;;
60426;SDS011;46274;47.168;27.604;2023-11-21T22:19:04;99.20;;;28.97;;
60426;SDS011;46274;47.168;27.604;2023-11-21T22:25:13;64.53;;;25.30;;
60426;SDS011;46274;47.168;27.604;2023-11-21T22:31:19;67.97;;;28.43;;
60426;SDS011;46274;47.168;27.604;2023-11-21T22:37:25;63.57;;;25.87;;
60426;SDS011;46274;47.168;27.604;2023-11-21T22:43:27;55.63;;;24.50;;
60426;SDS011;46274;47.168;27.604;2023-11-21T22:49:35;64.90;;;27.53;;
60426;SDS011;46274;47.168;27.604;2023-11-21T22:55:37;96.87;;;32.57;;
60426;SDS011;46274;47.168;27.604;2023-11-21T23:01:41;62.00;;;24.57;;
60426;SDS011;46274;47.168;27.604;2023-11-21T23:07:46;60.30;;;28.47;;
60426;SDS011;46274;47.168;27.604;2023-11-21T23:13:49;246.50;;;52.67;;
60426;SDS011;46274;47.168;27.604;2023-11-21T23:19:51;89.93;;;27.80;;
60426;SDS011;46274;47.168;27.604;2023-11-21T23:25:54;86.23;;;28.20;;
60426;SDS011;46274;47.168;27.604;2023-11-21T23:31:57;61.27;;;25.37;;
60426;SDS011;46274;47.168;27.604;2023-11-21T23:38:04;237.23;;;30.90;;
60426;SDS011;46274;47.168;27.604;2023-11-21T23:44:11;58.93;;;22.70;;
60426;SDS011;46274;47.168;27.604;2023-11-21T23:50:20;37.90;;;19.47;;
60426;SDS011;46274;47.168;27.604;2023-11-21T23:56:34;119.37;;;27.47;;
